sensor_id;sensor_type;location;lat;lon;timestamp;pressure;altitude;pressure_sealevel;temperature;humidity
66801;BME280;53703;50.326;19.122;2023-01-15T00:00:10;98164.65;;;19.28;46.23
66801;BME280;53703;50.326;19.122;2023-01-15T00:03:24;98155.47;;;19.28;46.10
66801;BME280;53703;50.326;19.122;2023-01-15T00:06:18;98145.27;;;19.30;46.07
66801;BME280;53703;50.326;19.122;2023-01-15T00:08:57;98135.96;;;19.28;46.24
66801;BME280;53703;50.326;19.122;2023-01-15T00:11:51;98128.27;;;19.30;46.15
66801;BME280;53703;50.326;19.122;2023-01-15T00:14:46;98124.05;;;19.29;46.14
66801;BME280;53703;50.326;19.122;2023-01-15T00:17:40;98117.16;;;19.29;46.19
66801;BME280;53703;50.326;19.122;2023-01-15T00:20:34;98118.63;;;19.31;46.13
66801;BME280;53703;50.326;19.122;2023-01-15T00:23:27;98107.30;;;19.28;46.16
66801;BME280;53703;50.326;19.122;2023-01-15T00:26:40;98105.82;;;19.29;46.18
66801;BME280;53703;50.326;19.122;2023-01-15T00:29:51;98100.48;;;19.27;46.19
66801;BME280;53703;50.326;19.122;2023-01-15T00:32:45;98095.80;;;19.28;46.17
66801;BME280;53703;50.326;19.122;2023-01-15T00:35:39;98094.01;;;19.31;46.16
66801;BME280;53703;50.326;19.122;2023-01-15T00:38:33;98090.77;;;19.29;46.05
66801;BME280;53703;50.326;19.122;2023-01-15T00:41:27;98089.93;;;19.29;46.01
66801;BME280;53703;50.326;19.122;2023-01-15T00:44:21;98090.60;;;19.29;45.95
66801;BME280;53703;50.326;19.122;2023-01-15T00:47:15;98093.81;;;19.26;45.97
66801;BME280;53703;50.326;19.122;2023-01-15T00:50:13;98091.84;;;19.26;46.03
66801;BME280;53703;50.326;19.122;2023-01-15T00:53:07;98093.57;;;19.27;46.12
66801;BME280;53703;50.326;19.122;2023-01-15T00:56:00;98088.30;;;19.26;46.05
66801;BME280;53703;50.326;19.122;2023-01-15T00:58:54;98078.14;;;19.24;46.02
66801;BME280;53703;50.326;19.122;2023-01-15T01:01:48;98070.21;;;19.24;45.94
66801;BME280;53703;50.326;19.122;2023-01-15T01:04:43;98059.65;;;19.26;45.98
66801;BME280;53703;50.326;19.122;2023-01-15T01:07:26;98056.38;;;19.24;46.10
66801;BME280;53703;50.326;19.122;2023-01-15T01:10:20;98048.39;;;19.28;45.88
66801;BME280;53703;50.326;19.122;2023-01-15T01:13:14;98042.13;;;19.29;45.83
66801;BME280;53703;50.326;19.122;2023-01-15T01:16:25;98039.97;;;19.23;45.98
66801;BME280;53703;50.326;19.122;2023-01-15T01:19:24;98031.03;;;19.28;46.04
66801;BME280;53703;50.326;19.122;2023-01-15T01:22:18;98028.48;;;19.27;45.99
66801;BME280;53703;50.326;19.122;2023-01-15T01:25:12;98025.98;;;19.30;45.83
66801;BME280;53703;50.326;19.122;2023-01-15T01:28:06;98023.91;;;19.29;45.83
66801;BME280;53703;50.326;19.122;2023-01-15T01:31:02;98019.94;;;19.27;45.84
66801;BME280;53703;50.326;19.122;2023-01-15T01:33:58;98013.47;;;19.29;45.71
66801;BME280;53703;50.326;19.122;2023-01-15T01:36:52;98003.34;;;19.27;45.87
66801;BME280;53703;50.326;19.122;2023-01-15T01:39:46;98005.51;;;19.29;45.84
66801;BME280;53703;50.326;19.122;2023-01-15T01:42:40;98000.79;;;19.31;45.72
66801;BME280;53703;50.326;19.122;2023-01-15T01:45:35;97994.73;;;19.32;45.72
66801;BME280;53703;50.326;19.122;2023-01-15T01:48:33;97989.77;;;19.29;45.69
66801;BME280;53703;50.326;19.122;2023-01-15T01:51:31;97990.87;;;19.34;45.68
66801;BME280;53703;50.326;19.122;2023-01-15T01:54:29;97992.20;;;19.33;45.62
66801;BME280;53703;50.326;19.122;2023-01-15T01:57:24;97988.82;;;19.30;45.72
66801;BME280;53703;50.326;19.122;2023-01-15T02:00:19;97987.52;;;19.28;45.73
66801;BME280;53703;50.326;19.122;2023-01-15T02:03:14;97979.30;;;19.29;45.62
66801;BME280;53703;50.326;19.122;2023-01-15T02:06:10;97976.62;;;19.27;45.76
66801;BME280;53703;50.326;19.122;2023-01-15T02:09:05;97968.50;;;19.26;45.73
66801;BME280;53703;50.326;19.122;2023-01-15T02:12:04;97956.57;;;19.25;45.62
66801;BME280;53703;50.326;19.122;2023-01-15T02:15:07;97950.01;;;19.28;45.66
66801;BME280;53703;50.326;19.122;2023-01-15T02:18:11;97955.01;;;19.27;45.72
66801;BME280;53703;50.326;19.122;2023-01-15T02:21:14;97951.48;;;19.24;45.69
66801;BME280;53703;50.326;19.122;2023-01-15T02:24:16;97946.01;;;19.24;45.72
66801;BME280;53703;50.326;19.122;2023-01-15T02:27:15;97948.52;;;19.26;45.67
66801;BME280;53703;50.326;19.122;2023-01-15T02:30:14;97953.06;;;19.27;45.66
66801;BME280;53703;50.326;19.122;2023-01-15T02:33:17;97950.80;;;19.26;45.54
66801;BME280;53703;50.326;19.122;2023-01-15T02:36:15;97940.05;;;19.26;45.72
66801;BME280;53703;50.326;19.122;2023-01-15T02:39:14;97932.88;;;19.24;45.73
66801;BME280;53703;50.326;19.122;2023-01-15T02:42:10;97932.07;;;19.20;45.85
66801;BME280;53703;50.326;19.122;2023-01-15T02:45:07;97931.59;;;19.22;45.76
66801;BME280;53703;50.326;19.122;2023-01-15T02:48:10;97934.33;;;19.21;45.84
66801;BME280;53703;50.326;19.122;2023-01-15T02:51:08;97943.84;;;19.22;45.79
66801;BME280;53703;50.326;19.122;2023-01-15T02:54:05;97941.30;;;19.20;45.76
66801;BME280;53703;50.326;19.122;2023-01-15T02:57:03;97929.84;;;19.19;45.79
66801;BME280;53703;50.326;19.122;2023-01-15T02:59:58;97921.02;;;19.21;45.67
66801;BME280;53703;50.326;19.122;2023-01-15T03:03:00;97923.80;;;19.22;45.61
66801;BME280;53703;50.326;19.122;2023-01-15T03:05:59;97919.98;;;19.19;45.72
66801;BME280;53703;50.326;19.122;2023-01-15T03:08:55;97919.73;;;19.17;45.84
66801;BME280;53703;50.326;19.122;2023-01-15T03:12:00;97918.33;;;19.19;45.72
66801;BME280;53703;50.326;19.122;2023-01-15T03:15:04;97913.00;;;19.20;45.67
66801;BME280;53703;50.326;19.122;2023-01-15T03:18:03;97911.39;;;19.17;45.75
66801;BME280;53703;50.326;19.122;2023-01-15T03:21:04;97913.89;;;19.17;45.71
66801;BME280;53703;50.326;19.122;2023-01-15T03:24:01;97913.69;;;19.14;45.70
66801;BME280;53703;50.326;19.122;2023-01-15T03:26:57;97906.48;;;19.14;45.85
66801;BME280;53703;50.326;19.122;2023-01-15T03:29:54;97897.96;;;19.14;45.82
66801;BME280;53703;50.326;19.122;2023-01-15T03:32:51;97888.64;;;19.16;45.76
66801;BME280;53703;50.326;19.122;2023-01-15T03:35:50;97887.17;;;19.14;45.78
66801;BME280;53703;50.326;19.122;2023-01-15T03:38:45;97879.09;;;19.19;45.64
66801;BME280;53703;50.326;19.122;2023-01-15T03:41:51;97882.41;;;19.14;45.76
66801;BME280;53703;50.326;19.122;2023-01-15T03:44:54;97877.48;;;19.13;45.75
66801;BME280;53703;50.326;19.122;2023-01-15T03:48:00;97874.13;;;19.10;45.79
66801;BME280;53703;50.326;19.122;2023-01-15T03:50:59;97875.73;;;19.10;45.78
66801;BME280;53703;50.326;19.122;2023-01-15T03:53:58;97875.39;;;19.13;45.66
66801;BME280;53703;50.326;19.122;2023-01-15T03:57:00;97867.95;;;19.13;45.62
66801;BME280;53703;50.326;19.122;2023-01-15T04:00:00;97866.98;;;19.09;45.72
66801;BME280;53703;50.326;19.122;2023-01-15T04:02:57;97865.33;;;19.10;45.61
66801;BME280;53703;50.326;19.122;2023-01-15T04:05:53;97858.34;;;19.11;45.72
66801;BME280;53703;50.326;19.122;2023-01-15T04:08:38;97860.31;;;19.08;45.64
66801;BME280;53703;50.326;19.122;2023-01-15T04:11:33;97850.06;;;19.10;45.70
66801;BME280;53703;50.326;19.122;2023-01-15T04:14:27;97847.70;;;19.09;45.70
66801;BME280;53703;50.326;19.122;2023-01-15T04:17:22;97838.89;;;19.05;45.64
66801;BME280;53703;50.326;19.122;2023-01-15T04:20:16;97834.90;;;19.07;45.68
66801;BME280;53703;50.326;19.122;2023-01-15T04:23:10;97831.30;;;19.05;45.81
66801;BME280;53703;50.326;19.122;2023-01-15T04:26:03;97828.49;;;19.07;45.78
66801;BME280;53703;50.326;19.122;2023-01-15T04:28:59;97829.68;;;19.05;45.63
66801;BME280;53703;50.326;19.122;2023-01-15T04:31:52;97831.98;;;19.06;45.67
66801;BME280;53703;50.326;19.122;2023-01-15T04:34:49;97833.89;;;19.06;45.57
66801;BME280;53703;50.326;19.122;2023-01-15T04:37:43;97834.45;;;19.02;45.73
66801;BME280;53703;50.326;19.122;2023-01-15T04:40:37;97830.90;;;19.03;45.80
66801;BME280;53703;50.326;19.122;2023-01-15T04:43:48;97817.24;;;19.03;45.70
66801;BME280;53703;50.326;19.122;2023-01-15T04:47:01;97819.04;;;19.12;45.61
66801;BME280;53703;50.326;19.122;2023-01-15T04:49:54;97812.09;;;19.00;45.78
66801;BME280;53703;50.326;19.122;2023-01-15T04:52:48;97801.52;;;19.06;45.61
66801;BME280;53703;50.326;19.122;2023-01-15T04:55:42;97803.86;;;19.11;45.49
66801;BME280;53703;50.326;19.122;2023-01-15T04:58:37;97799.88;;;19.07;45.44
66801;BME280;53703;50.326;19.122;2023-01-15T05:01:30;97800.33;;;19.02;45.63
66801;BME280;53703;50.326;19.122;2023-01-15T05:04:24;97798.80;;;19.07;45.42
66801;BME280;53703;50.326;19.122;2023-01-15T05:07:18;97787.39;;;19.06;45.36
66801;BME280;53703;50.326;19.122;2023-01-15T05:10:12;97795.63;;;19.07;45.53
66801;BME280;53703;50.326;19.122;2023-01-15T05:13:06;97801.77;;;19.05;45.54
66801;BME280;53703;50.326;19.122;2023-01-15T05:16:12;97802.30;;;19.02;45.56
66801;BME280;53703;50.326;19.122;2023-01-15T05:19:08;97800.45;;;19.03;45.54
66801;BME280;53703;50.326;19.122;2023-01-15T05:22:02;97788.64;;;18.99;45.62
66801;BME280;53703;50.326;19.122;2023-01-15T05:24:56;97779.71;;;18.92;45.77
66801;BME280;53703;50.326;19.122;2023-01-15T05:27:49;97765.61;;;18.97;45.60
66801;BME280;53703;50.326;19.122;2023-01-15T05:30:43;97762.19;;;18.93;45.70
66801;BME280;53703;50.326;19.122;2023-01-15T05:33:33;97767.96;;;18.96;45.67
66801;BME280;53703;50.326;19.122;2023-01-15T05:36:30;97769.33;;;18.94;45.69
66801;BME280;53703;50.326;19.122;2023-01-15T05:39:23;97766.39;;;18.93;45.55
66801;BME280;53703;50.326;19.122;2023-01-15T05:42:17;97764.18;;;18.89;45.68
66801;BME280;53703;50.326;19.122;2023-01-15T05:45:12;97761.23;;;18.88;45.72
66801;BME280;53703;50.326;19.122;2023-01-15T05:48:06;97767.46;;;18.87;45.80
66801;BME280;53703;50.326;19.122;2023-01-15T05:51:03;97764.98;;;18.90;45.61
66801;BME280;53703;50.326;19.122;2023-01-15T05:53:56;97761.88;;;18.89;45.56
66801;BME280;53703;50.326;19.122;2023-01-15T05:56:49;97761.04;;;18.88;45.71
66801;BME280;53703;50.326;19.122;2023-01-15T05:59:44;97747.95;;;18.85;45.77
66801;BME280;53703;50.326;19.122;2023-01-15T06:02:37;97748.58;;;18.84;45.76
66801;BME280;53703;50.326;19.122;2023-01-15T06:05:31;97753.98;;;18.85;45.69
66801;BME280;53703;50.326;19.122;2023-01-15T06:08:25;97747.27;;;18.82;45.72
66801;BME280;53703;50.326;19.122;2023-01-15T06:11:19;97747.42;;;18.80;45.58
66801;BME280;53703;50.326;19.122;2023-01-15T06:14:13;97750.80;;;18.80;45.76
66801;BME280;53703;50.326;19.122;2023-01-15T06:17:07;97754.68;;;18.80;45.69
66801;BME280;53703;50.326;19.122;2023-01-15T06:20:01;97748.77;;;18.81;45.28
66801;BME280;53703;50.326;19.122;2023-01-15T06:22:54;97750.05;;;18.77;45.42
66801;BME280;53703;50.326;19.122;2023-01-15T06:25:48;97751.23;;;18.78;45.50
66801;BME280;53703;50.326;19.122;2023-01-15T06:28:42;97758.24;;;18.82;45.60
66801;BME280;53703;50.326;19.122;2023-01-15T06:31:23;97754.99;;;18.80;45.65
66801;BME280;53703;50.326;19.122;2023-01-15T06:34:18;97763.94;;;18.82;45.63
66801;BME280;53703;50.326;19.122;2023-01-15T06:37:12;97758.58;;;18.79;45.57
66801;BME280;53703;50.326;19.122;2023-01-15T06:40:08;97760.98;;;18.69;45.80
66801;BME280;53703;50.326;19.122;2023-01-15T06:43:02;97759.67;;;18.64;46.04
66801;BME280;53703;50.326;19.122;2023-01-15T06:46:18;97759.56;;;18.62;45.87
66801;BME280;53703;50.326;19.122;2023-01-15T06:49:30;97761.94;;;18.65;45.85
66801;BME280;53703;50.326;19.122;2023-01-15T06:52:25;97759.40;;;18.69;45.77
66801;BME280;53703;50.326;19.122;2023-01-15T06:55:19;97760.86;;;18.65;45.86
66801;BME280;53703;50.326;19.122;2023-01-15T06:58:14;97766.95;;;18.58;46.13
66801;BME280;53703;50.326;19.122;2023-01-15T07:01:12;97762.77;;;18.59;46.07
66801;BME280;53703;50.326;19.122;2023-01-15T07:04:07;97757.95;;;18.57;45.99
66801;BME280;53703;50.326;19.122;2023-01-15T07:07:01;97757.92;;;18.61;46.04
66801;BME280;53703;50.326;19.122;2023-01-15T07:09:55;97759.45;;;18.56;46.10
66801;BME280;53703;50.326;19.122;2023-01-15T07:12:49;97762.41;;;18.59;45.97
66801;BME280;53703;50.326;19.122;2023-01-15T07:15:42;97762.20;;;18.55;46.05
66801;BME280;53703;50.326;19.122;2023-01-15T07:18:36;97761.71;;;18.56;46.07
66801;BME280;53703;50.326;19.122;2023-01-15T07:21:30;97769.38;;;18.55;46.08
66801;BME280;53703;50.326;19.122;2023-01-15T07:24:24;97762.25;;;18.56;45.94
66801;BME280;53703;50.326;19.122;2023-01-15T07:27:17;97771.60;;;18.59;45.86
66801;BME280;53703;50.326;19.122;2023-01-15T07:30:14;97766.85;;;18.56;45.86
66801;BME280;53703;50.326;19.122;2023-01-15T07:33:07;97768.22;;;18.51;45.94
66801;BME280;53703;50.326;19.122;2023-01-15T07:36:04;97772.81;;;18.54;45.94
66801;BME280;53703;50.326;19.122;2023-01-15T07:38:58;97776.89;;;18.51;45.93
66801;BME280;53703;50.326;19.122;2023-01-15T07:41:52;97766.05;;;18.55;45.99
66801;BME280;53703;50.326;19.122;2023-01-15T07:45:04;97763.93;;;18.55;45.91
66801;BME280;53703;50.326;19.122;2023-01-15T07:48:15;97750.65;;;18.52;45.81
66801;BME280;53703;50.326;19.122;2023-01-15T07:51:26;97752.58;;;18.53;45.79
66801;BME280;53703;50.326;19.122;2023-01-15T07:54:20;97749.18;;;18.50;45.78
66801;BME280;53703;50.326;19.122;2023-01-15T07:57:16;97744.55;;;18.45;45.82
66801;BME280;53703;50.326;19.122;2023-01-15T08:00:15;97745.27;;;18.36;46.11
66801;BME280;53703;50.326;19.122;2023-01-15T08:03:09;97739.70;;;18.34;46.18
66801;BME280;53703;50.326;19.122;2023-01-15T08:06:02;97736.97;;;18.33;46.24
66801;BME280;53703;50.326;19.122;2023-01-15T08:08:56;97740.20;;;18.35;46.16
66801;BME280;53703;50.326;19.122;2023-01-15T08:11:50;97745.48;;;18.35;46.13
66801;BME280;53703;50.326;19.122;2023-01-15T08:14:57;97739.84;;;18.29;46.28
66801;BME280;53703;50.326;19.122;2023-01-15T08:18:06;97744.54;;;18.31;46.21
66801;BME280;53703;50.326;19.122;2023-01-15T08:21:00;97744.77;;;18.30;46.29
66801;BME280;53703;50.326;19.122;2023-01-15T08:23:54;97749.73;;;18.23;46.38
66801;BME280;53703;50.326;19.122;2023-01-15T08:26:48;97754.55;;;18.28;46.31
66801;BME280;53703;50.326;19.122;2023-01-15T08:29:41;97752.72;;;18.26;46.29
66801;BME280;53703;50.326;19.122;2023-01-15T08:32:35;97757.02;;;18.25;45.35
66801;BME280;53703;50.326;19.122;2023-01-15T08:35:29;97753.05;;;18.27;46.03
66801;BME280;53703;50.326;19.122;2023-01-15T08:38:23;97745.52;;;16.57;42.69
66801;BME280;53703;50.326;19.122;2023-01-15T08:41:17;97741.83;;;16.46;43.06
66801;BME280;53703;50.326;19.122;2023-01-15T08:44:11;97733.95;;;17.66;42.68
66801;BME280;53703;50.326;19.122;2023-01-15T08:47:05;97732.60;;;18.05;43.51
66801;BME280;53703;50.326;19.122;2023-01-15T08:49:58;97737.37;;;18.26;43.90
66801;BME280;53703;50.326;19.122;2023-01-15T08:52:52;97735.05;;;18.53;42.81
66801;BME280;53703;50.326;19.122;2023-01-15T08:55:46;97726.63;;;18.52;43.27
66801;BME280;53703;50.326;19.122;2023-01-15T08:58:40;97720.88;;;18.45;43.50
66801;BME280;53703;50.326;19.122;2023-01-15T09:01:34;97714.52;;;18.27;43.88
66801;BME280;53703;50.326;19.122;2023-01-15T09:04:13;97717.46;;;18.43;45.55
66801;BME280;53703;50.326;19.122;2023-01-15T09:07:07;97716.46;;;18.45;46.82
66801;BME280;53703;50.326;19.122;2023-01-15T09:10:01;97709.40;;;18.48;47.64
66801;BME280;53703;50.326;19.122;2023-01-15T09:12:58;97710.27;;;18.54;47.92
66801;BME280;53703;50.326;19.122;2023-01-15T09:15:53;97712.10;;;18.53;48.17
66801;BME280;53703;50.326;19.122;2023-01-15T09:18:50;97708.12;;;18.60;47.98
66801;BME280;53703;50.326;19.122;2023-01-15T09:21:44;97706.96;;;18.56;47.78
66801;BME280;53703;50.326;19.122;2023-01-15T09:24:38;97712.74;;;18.54;47.95
66801;BME280;53703;50.326;19.122;2023-01-15T09:27:32;97712.45;;;18.53;47.65
66801;BME280;53703;50.326;19.122;2023-01-15T09:30:26;97715.55;;;18.45;47.45
66801;BME280;53703;50.326;19.122;2023-01-15T09:33:21;97722.05;;;18.46;47.18
66801;BME280;53703;50.326;19.122;2023-01-15T09:36:19;97721.44;;;18.20;46.28
66801;BME280;53703;50.326;19.122;2023-01-15T09:39:15;97716.34;;;18.32;46.72
66801;BME280;53703;50.326;19.122;2023-01-15T09:42:21;97708.91;;;18.29;46.47
66801;BME280;53703;50.326;19.122;2023-01-15T09:45:25;97706.09;;;18.09;46.18
66801;BME280;53703;50.326;19.122;2023-01-15T09:48:35;97705.74;;;18.20;46.14
66801;BME280;53703;50.326;19.122;2023-01-15T09:51:40;97705.20;;;18.26;46.76
66801;BME280;53703;50.326;19.122;2023-01-15T09:54:52;97698.39;;;18.16;46.81
66801;BME280;53703;50.326;19.122;2023-01-15T09:57:54;97695.64;;;18.30;47.00
66801;BME280;53703;50.326;19.122;2023-01-15T10:00:51;97691.55;;;18.36;46.62
66801;BME280;53703;50.326;19.122;2023-01-15T10:03:48;97686.52;;;18.40;46.75
66801;BME280;53703;50.326;19.122;2023-01-15T10:06:53;97679.26;;;18.43;46.84
66801;BME280;53703;50.326;19.122;2023-01-15T10:09:56;97672.33;;;18.44;46.87
66801;BME280;53703;50.326;19.122;2023-01-15T10:12:56;97667.45;;;18.37;47.08
66801;BME280;53703;50.326;19.122;2023-01-15T10:15:51;97659.09;;;18.44;47.04
66801;BME280;53703;50.326;19.122;2023-01-15T10:18:34;97652.59;;;18.40;47.06
66801;BME280;53703;50.326;19.122;2023-01-15T10:21:37;97649.98;;;18.40;47.09
66801;BME280;53703;50.326;19.122;2023-01-15T10:24:38;97642.58;;;18.36;47.08
66801;BME280;53703;50.326;19.122;2023-01-15T10:27:32;97640.30;;;18.42;46.92
66801;BME280;53703;50.326;19.122;2023-01-15T10:30:52;97637.05;;;18.32;47.17
66801;BME280;53703;50.326;19.122;2023-01-15T10:34:21;97628.08;;;18.39;46.95
66801;BME280;53703;50.326;19.122;2023-01-15T10:37:32;97622.33;;;18.32;47.00
66801;BME280;53703;50.326;19.122;2023-01-15T10:41:04;97620.14;;;18.31;47.09
66801;BME280;53703;50.326;19.122;2023-01-15T10:44:02;97612.67;;;18.31;46.97
66801;BME280;53703;50.326;19.122;2023-01-15T10:47:00;97607.45;;;18.33;46.95
66801;BME280;53703;50.326;19.122;2023-01-15T10:49:54;97606.90;;;18.25;46.98
66801;BME280;53703;50.326;19.122;2023-01-15T10:53:08;97607.63;;;18.19;46.84
66801;BME280;53703;50.326;19.122;2023-01-15T10:56:11;97604.27;;;17.98;46.51
66801;BME280;53703;50.326;19.122;2023-01-15T10:59:14;97596.17;;;17.93;46.96
66801;BME280;53703;50.326;19.122;2023-01-15T11:02:24;97593.45;;;17.91;46.96
66801;BME280;53703;50.326;19.122;2023-01-15T11:05:21;97580.48;;;18.01;46.80
66801;BME280;53703;50.326;19.122;2023-01-15T11:08:38;97576.57;;;17.93;47.42
66801;BME280;53703;50.326;19.122;2023-01-15T11:12:01;97570.20;;;17.81;47.99
66801;BME280;53703;50.326;19.122;2023-01-15T11:15:24;97565.84;;;17.74;47.20
66801;BME280;53703;50.326;19.122;2023-01-15T11:18:40;97566.29;;;17.78;47.68
66801;BME280;53703;50.326;19.122;2023-01-15T11:21:53;97555.29;;;17.79;47.08
66801;BME280;53703;50.326;19.122;2023-01-15T11:24:52;97548.89;;;17.74;47.12
66801;BME280;53703;50.326;19.122;2023-01-15T11:27:50;97554.55;;;17.77;47.14
66801;BME280;53703;50.326;19.122;2023-01-15T11:31:08;97545.74;;;17.74;47.04
66801;BME280;53703;50.326;19.122;2023-01-15T11:34:04;97547.73;;;17.76;47.05
66801;BME280;53703;50.326;19.122;2023-01-15T11:37:06;97548.42;;;17.73;47.08
66801;BME280;53703;50.326;19.122;2023-01-15T11:40:01;97545.06;;;17.70;47.25
66801;BME280;53703;50.326;19.122;2023-01-15T11:42:58;97540.77;;;17.72;47.15
66801;BME280;53703;50.326;19.122;2023-01-15T11:46:26;97531.41;;;17.68;47.14
66801;BME280;53703;50.326;19.122;2023-01-15T11:49:38;97529.98;;;17.68;47.35
66801;BME280;53703;50.326;19.122;2023-01-15T11:52:51;97528.80;;;17.67;47.33
66801;BME280;53703;50.326;19.122;2023-01-15T11:55:59;97534.48;;;17.67;47.44
66801;BME280;53703;50.326;19.122;2023-01-15T11:58:56;97533.08;;;17.67;47.42
66801;BME280;53703;50.326;19.122;2023-01-15T12:01:54;97534.17;;;17.66;47.45
66801;BME280;53703;50.326;19.122;2023-01-15T12:04:55;97539.50;;;17.63;47.59
66801;BME280;53703;50.326;19.122;2023-01-15T12:07:53;97529.73;;;17.58;47.81
66801;BME280;53703;50.326;19.122;2023-01-15T12:10:54;97521.58;;;17.62;48.45
66801;BME280;53703;50.326;19.122;2023-01-15T12:14:43;97516.34;;;17.63;47.02
66801;BME280;53703;50.326;19.122;2023-01-15T12:18:21;97513.10;;;17.74;46.45
66801;BME280;53703;50.326;19.122;2023-01-15T12:21:49;97504.52;;;17.84;47.03
66801;BME280;53703;50.326;19.122;2023-01-15T12:25:13;97506.15;;;17.92;48.35
66801;BME280;53703;50.326;19.122;2023-01-15T12:28:17;97506.29;;;17.93;48.31
66801;BME280;53703;50.326;19.122;2023-01-15T12:31:18;97501.35;;;17.98;48.15
66801;BME280;53703;50.326;19.122;2023-01-15T12:34:22;97502.84;;;17.89;49.68
66801;BME280;53703;50.326;19.122;2023-01-15T12:37:16;97497.80;;;16.82;47.75
66801;BME280;53703;50.326;19.122;2023-01-15T12:40:23;97484.18;;;17.58;47.88
66801;BME280;53703;50.326;19.122;2023-01-15T12:43:24;97486.64;;;17.82;47.45
66801;BME280;53703;50.326;19.122;2023-01-15T12:46:38;97477.44;;;17.88;47.42
66801;BME280;53703;50.326;19.122;2023-01-15T12:49:41;97478.46;;;17.92;47.47
66801;BME280;53703;50.326;19.122;2023-01-15T12:52:39;97477.11;;;17.85;47.82
66801;BME280;53703;50.326;19.122;2023-01-15T12:55:39;97476.06;;;17.88;47.83
66801;BME280;53703;50.326;19.122;2023-01-15T12:58:47;97471.48;;;17.90;47.93
66801;BME280;53703;50.326;19.122;2023-01-15T13:01:28;97471.45;;;17.88;47.94
66801;BME280;53703;50.326;19.122;2023-01-15T13:04:29;97465.11;;;17.88;48.02
66801;BME280;53703;50.326;19.122;2023-01-15T13:07:31;97459.98;;;17.88;48.11
66801;BME280;53703;50.326;19.122;2023-01-15T13:10:29;97459.64;;;17.88;48.18
66801;BME280;53703;50.326;19.122;2023-01-15T13:13:31;97465.25;;;17.91;48.25
66801;BME280;53703;50.326;19.122;2023-01-15T13:16:39;97465.68;;;18.01;48.11
66801;BME280;53703;50.326;19.122;2023-01-15T13:19:44;97468.05;;;18.06;48.01
66801;BME280;53703;50.326;19.122;2023-01-15T13:22:51;97467.64;;;18.09;48.02
66801;BME280;53703;50.326;19.122;2023-01-15T13:26:04;97466.80;;;18.14;47.94
66801;BME280;53703;50.326;19.122;2023-01-15T13:29:29;97464.81;;;18.15;47.90
66801;BME280;53703;50.326;19.122;2023-01-15T13:35:55;97466.95;;;17.90;48.00
66801;BME280;53703;50.326;19.122;2023-01-15T13:38:57;97471.30;;;17.79;48.13
66801;BME280;53703;50.326;19.122;2023-01-15T13:41:54;97467.15;;;17.78;47.87
66801;BME280;53703;50.326;19.122;2023-01-15T13:45:21;97465.52;;;17.78;47.93
66801;BME280;53703;50.326;19.122;2023-01-15T13:48:24;97458.65;;;17.80;47.88
66801;BME280;53703;50.326;19.122;2023-01-15T13:51:29;97451.85;;;17.79;47.82
66801;BME280;53703;50.326;19.122;2023-01-15T13:54:26;97453.08;;;17.82;47.90
66801;BME280;53703;50.326;19.122;2023-01-15T13:57:31;97460.98;;;17.83;47.79
66801;BME280;53703;50.326;19.122;2023-01-15T14:00:31;97460.60;;;17.89;48.10
66801;BME280;53703;50.326;19.122;2023-01-15T14:03:30;97465.57;;;17.95;47.78
66801;BME280;53703;50.326;19.122;2023-01-15T14:06:44;97468.16;;;17.96;47.67
66801;BME280;53703;50.326;19.122;2023-01-15T14:09:38;97468.06;;;17.94;47.84
66801;BME280;53703;50.326;19.122;2023-01-15T14:12:42;97463.80;;;17.97;47.64
66801;BME280;53703;50.326;19.122;2023-01-15T14:16:10;97457.66;;;17.97;47.65
66801;BME280;53703;50.326;19.122;2023-01-15T14:19:27;97450.58;;;18.02;47.72
66801;BME280;53703;50.326;19.122;2023-01-15T14:22:42;97449.86;;;18.03;47.59
66801;BME280;53703;50.326;19.122;2023-01-15T14:25:31;97457.01;;;18.07;47.57
66801;BME280;53703;50.326;19.122;2023-01-15T14:28:25;97466.23;;;18.09;47.42
66801;BME280;53703;50.326;19.122;2023-01-15T14:34:21;97459.91;;;18.14;47.45
66801;BME280;53703;50.326;19.122;2023-01-15T14:36:59;97457.83;;;18.16;47.38
66801;BME280;53703;50.326;19.122;2023-01-15T14:39:47;97464.65;;;18.18;47.21
66801;BME280;53703;50.326;19.122;2023-01-15T14:42:30;97465.13;;;18.19;47.21
66801;BME280;53703;50.326;19.122;2023-01-15T14:45:27;97462.58;;;18.20;47.17
66801;BME280;53703;50.326;19.122;2023-01-15T14:48:03;97465.83;;;18.24;47.09
66801;BME280;53703;50.326;19.122;2023-01-15T14:50:39;97465.28;;;18.27;46.83
66801;BME280;53703;50.326;19.122;2023-01-15T14:53:30;97460.31;;;18.33;46.58
66801;BME280;53703;50.326;19.122;2023-01-15T14:56:17;97459.23;;;18.36;47.14
66801;BME280;53703;50.326;19.122;2023-01-15T14:59:00;97458.09;;;18.37;47.37
66801;BME280;53703;50.326;19.122;2023-01-15T15:02:17;97460.41;;;18.42;47.58
66801;BME280;53703;50.326;19.122;2023-01-15T15:04:54;97464.14;;;18.42;48.20
66801;BME280;53703;50.326;19.122;2023-01-15T15:07:32;97473.88;;;18.44;48.69
66801;BME280;53703;50.326;19.122;2023-01-15T15:10:18;97470.73;;;18.47;49.33
66801;BME280;53703;50.326;19.122;2023-01-15T15:13:00;97471.70;;;18.48;49.64
66801;BME280;53703;50.326;19.122;2023-01-15T15:15:47;97468.09;;;18.52;48.58
66801;BME280;53703;50.326;19.122;2023-01-15T15:18:31;97463.61;;;18.58;48.06
66801;BME280;53703;50.326;19.122;2023-01-15T15:21:11;97466.44;;;18.61;48.79
66801;BME280;53703;50.326;19.122;2023-01-15T15:23:54;97470.27;;;18.68;50.01
66801;BME280;53703;50.326;19.122;2023-01-15T15:26:31;97480.71;;;18.65;50.94
66801;BME280;53703;50.326;19.122;2023-01-15T15:29:10;97480.65;;;18.69;51.03
66801;BME280;53703;50.326;19.122;2023-01-15T15:31:46;97480.36;;;18.73;51.04
66801;BME280;53703;50.326;19.122;2023-01-15T15:34:27;97482.45;;;18.82;49.77
66801;BME280;53703;50.326;19.122;2023-01-15T15:37:17;97482.44;;;18.82;50.07